Time;durP1;ratioP1;P1;durP2;ratioP2;P2;SDS_P1;SDS_P2;PMS_P1;PMS_P2;Temp;Humidity;BMP_temperature;BMP_pressure;BME280_temperature;BME280_humidity;BME280_pressure;Samples;Min_cycle;Max_cycle;Signal;HPM_P1;HPM_P2
2020/12/26 00:01:29;;;;;;;47.28;23.80;;;;;;;-2.23;85.80;98664.50;5085649;28;20028;-54
2020/12/26 00:03:55;;;;;;;43.22;21.20;;;;;;;-2.26;85.46;98672.91;5085962;28;20024;-54
2020/12/26 00:06:22;;;;;;;52.63;24.88;;;;;;;-2.21;85.75;98672.13;5085717;28;20025;-54
2020/12/26 00:08:48;;;;;;;42.75;22.80;;;;;;;-2.22;85.99;98680.56;5085763;28;20024;-55
2020/12/26 00:11:15;;;;;;;50.30;24.70;;;;;;;-2.18;86.27;98682.31;5081297;28;20033;-54
2020/12/26 00:13:42;;;;;;;47.33;22.88;;;;;;;-2.18;85.69;98682.31;5065617;28;20057;-54
2020/12/26 00:16:12;;;;;;;47.15;22.63;;;;;;;-2.26;86.29;98670.38;5065396;28;20025;-54
2020/12/26 00:18:38;;;;;;;45.83;23.55;;;;;;;-2.16;85.86;98678.13;5065565;28;20087;-54
2020/12/26 00:21:09;;;;;;;45.28;23.38;;;;;;;-2.08;86.02;98699.38;5068207;28;20055;-54
2020/12/26 00:23:35;;;;;;;47.17;23.17;;;;;;;-2.15;85.49;98673.06;5085678;28;20095;-54
2020/12/26 00:26:01;;;;;;;45.15;23.15;;;;;;;-2.10;85.52;98679.03;5085373;28;20021;-54
2020/12/26 00:28:27;;;;;;;48.35;25.08;;;;;;;-1.98;84.64;98690.16;5085377;28;20035;-54
2020/12/26 00:30:53;;;;;;;55.15;22.95;;;;;;;-1.98;85.59;98685.97;5085208;28;20066;-54
2020/12/26 00:33:18;;;;;;;50.10;24.58;;;;;;;-1.88;84.76;98681.00;5085285;28;20036;-53
2020/12/26 00:35:44;;;;;;;49.10;24.40;;;;;;;-1.92;84.94;98680.13;5085322;28;20198;-54
2020/12/26 00:38:10;;;;;;;46.42;21.58;;;;;;;-1.94;84.87;98676.69;5085209;28;20020;-53
2020/12/26 00:40:35;;;;;;;40.25;21.80;;;;;;;-2.10;85.49;98678.19;5085033;28;20309;-54
2020/12/26 00:43:01;;;;;;;48.70;23.85;;;;;;;-1.86;84.79;98681.88;5065781;28;20029;-54
2020/12/26 00:45:26;;;;;;;47.60;21.77;;;;;;;-1.92;84.53;98678.44;5064892;28;20061;-53
2020/12/26 00:47:52;;;;;;;43.22;21.55;;;;;;;-1.97;83.97;98685.13;5064929;28;20325;-53
2020/12/26 00:50:17;;;;;;;53.50;25.70;;;;;;;-1.76;84.58;98681.16;5064992;28;20243;-53
2020/12/26 00:52:43;;;;;;;46.38;23.75;;;;;;;-1.83;84.57;98674.31;5080490;28;20065;-53
2020/12/26 00:55:09;;;;;;;49.08;24.30;;;;;;;-1.96;85.06;98675.84;5084996;28;20028;-54
2020/12/26 00:57:35;;;;;;;49.55;24.48;;;;;;;-1.89;84.67;98667.47;5084903;28;20020;-53
2020/12/26 01:00:01;;;;;;;46.47;24.75;;;;;;;-1.92;84.91;98675.88;5084659;28;20396;-54
2020/12/26 01:02:26;;;;;;;47.00;22.77;;;;;;;-1.90;85.03;98665.75;5071499;28;20210;-53
2020/12/26 01:04:52;;;;;;;46.03;21.70;;;;;;;-1.93;85.00;98661.50;5064899;28;20074;-53
2020/12/26 01:07:18;;;;;;;43.42;22.83;;;;;;;-1.97;85.78;98662.28;5064622;28;20329;-54
2020/12/26 01:09:43;;;;;;;47.90;25.23;;;;;;;-1.92;84.34;98647.13;5064615;28;20147;-53
2020/12/26 01:12:09;;;;;;;46.33;23.95;;;;;;;-1.82;84.78;98665.88;5074931;28;20020;-52
2020/12/26 01:14:34;;;;;;;45.00;23.35;;;;;;;-1.70;84.37;98660.06;5084498;28;20029;-53
2020/12/26 01:17:01;;;;;;;43.75;19.13;;;;;;;-1.81;83.99;98659.94;5084382;28;20043;-54
2020/12/26 01:19:29;;;;;;;44.75;22.13;;;;;;;-1.84;85.16;98653.16;5084463;28;20091;-54
2020/12/26 01:21:55;;;;;;;43.50;23.98;;;;;;;-1.75;85.10;98649.88;5076644;28;20333;-54
2020/12/26 01:24:21;;;;;;;51.30;24.25;;;;;;;-1.82;84.54;98654.03;5067612;28;20020;-54
2020/12/26 01:26:51;;;;;;;44.28;23.65;;;;;;;-1.88;85.40;98645.47;5069952;28;20024;-54
2020/12/26 01:29:18;;;;;;;43.53;23.23;;;;;;;-1.70;85.16;98650.75;5064049;28;20356;-55
2020/12/26 01:31:48;;;;;;;44.00;22.27;;;;;;;-2.10;84.74;98584.34;5064269;28;20435;-54
2020/12/26 01:34:14;;;;;;;41.80;21.73;;;;;;;-1.74;84.50;98638.88;5064254;28;20053;-54
2020/12/26 01:36:39;;;;;;;43.78;23.35;;;;;;;-1.67;85.23;98640.63;5063908;28;20021;-55
2020/12/26 01:39:05;;;;;;;45.92;22.60;;;;;;;-1.71;84.89;98649.06;5063763;28;20032;-55
2020/12/26 01:41:30;;;;;;;46.20;22.15;;;;;;;-1.73;85.32;98645.66;5068147;28;20028;-55
2020/12/26 01:43:58;;;;;;;42.10;22.77;;;;;;;-1.59;85.11;98654.25;5083872;28;20032;-53
2020/12/26 01:46:27;;;;;;;39.63;20.98;;;;;;;-1.94;83.56;98580.28;5083613;28;20051;-54
2020/12/26 01:48:53;;;;;;;43.15;22.17;;;;;;;-1.47;84.32;98630.72;5099602;28;20032;-53
2020/12/26 01:51:20;;;;;;;42.13;20.00;;;;;;;-1.57;83.72;98652.59;5081339;28;20028;-53
2020/12/26 01:53:48;;;;;;;37.70;21.02;;;;;;;-1.97;84.58;98585.34;5070416;28;20040;-53
2020/12/26 01:56:13;;;;;;;42.20;20.95;;;;;;;-1.44;84.16;98637.47;5083841;28;20032;-53
2020/12/26 01:58:42;;;;;;;38.60;20.60;;;;;;;-1.48;84.48;98640.81;5083562;28;20020;-53
2020/12/26 02:01:07;;;;;;;40.90;20.60;;;;;;;-1.40;83.89;98635.00;5083490;28;20055;-54
2020/12/26 02:03:33;;;;;;;46.30;21.13;;;;;;;-1.32;84.07;98629.16;5083533;28;20027;-54
2020/12/26 02:05:58;;;;;;;41.35;20.58;;;;;;;-1.34;82.78;98626.59;5083463;28;20027;-53
2020/12/26 02:08:24;;;;;;;38.35;20.10;;;;;;;-1.53;83.69;98633.16;5083358;28;20317;-54
2020/12/26 02:10:50;;;;;;;39.13;21.45;;;;;;;-1.53;83.51;98623.00;5083437;28;20033;-53
2020/12/26 02:13:15;;;;;;;43.33;21.17;;;;;;;-1.50;83.51;98628.13;5064916;28;20111;-53
2020/12/26 02:15:41;;;;;;;36.13;20.02;;;;;;;-1.63;83.34;98637.28;5063370;28;20036;-53
2020/12/26 02:18:06;;;;;;;42.63;19.55;;;;;;;-1.74;84.03;98631.25;5063356;28;20028;-53
2020/12/26 02:20:32;;;;;;;37.42;20.25;;;;;;;-1.61;83.68;98635.63;5063183;28;20041;-53
2020/12/26 02:23:01;;;;;;;38.80;20.85;;;;;;;-1.83;83.02;98573.66;5078530;28;20032;-53
2020/12/26 02:25:27;;;;;;;44.15;21.83;;;;;;;-1.48;83.19;98631.53;5083104;28;20359;-54
2020/12/26 02:27:52;;;;;;;40.85;20.88;;;;;;;-1.67;82.87;98635.56;5083039;28;20029;-54
2020/12/26 02:30:18;;;;;;;40.95;21.55;;;;;;;-1.79;83.24;98635.44;5083033;28;20036;-54
2020/12/26 02:32:44;;;;;;;46.38;22.50;;;;;;;-1.77;83.85;98628.69;5082981;28;20096;-53
2020/12/26 02:35:09;;;;;;;49.38;23.50;;;;;;;-1.69;84.13;98633.88;5083015;28;20054;-53
2020/12/26 02:37:35;;;;;;;43.70;20.40;;;;;;;-1.78;83.70;98629.50;5083152;28;20042;-53
2020/12/26 02:40:00;;;;;;;48.75;24.10;;;;;;;-1.89;84.63;98629.41;5082839;28;20040;-54
2020/12/26 02:42:26;;;;;;;44.67;22.85;;;;;;;-1.67;84.20;98638.09;5072171;28;20138;-53
2020/12/26 02:44:52;;;;;;;49.53;23.60;;;;;;;-1.76;83.99;98643.94;5061506;28;20079;-54
2020/12/26 02:47:17;;;;;;;47.58;23.75;;;;;;;-1.58;84.05;98635.66;5062779;28;20086;-54
2020/12/26 02:49:43;;;;;;;49.58;24.45;;;;;;;-1.57;84.44;98641.59;5062847;28;20333;-54
2020/12/26 02:52:08;;;;;;;43.33;23.38;;;;;;;-1.59;84.36;98630.56;5070776;28;20099;-54
2020/12/26 02:54:34;;;;;;;41.55;23.58;;;;;;;-1.48;84.14;98625.59;5082973;28;20022;-53
2020/12/26 02:56:59;;;;;;;44.38;22.52;;;;;;;-1.41;83.46;98633.28;5082729;28;20029;-54
2020/12/26 02:59:25;;;;;;;41.80;20.52;;;;;;;-1.48;83.20;98626.47;5082719;28;20021;-53
2020/12/26 03:01:50;;;;;;;39.50;20.98;;;;;;;-1.46;83.11;98629.84;5077236;28;20040;-54
2020/12/26 03:04:16;;;;;;;36.65;20.42;;;;;;;-1.61;83.70;98627.16;5062522;28;20056;-54
2020/12/26 03:06:42;;;;;;;38.97;20.08;;;;;;;-1.63;84.47;98627.13;5062326;28;20033;-54
2020/12/26 03:09:07;;;;;;;39.67;20.10;;;;;;;-1.62;84.00;98622.94;5062577;28;20024;-54
2020/12/26 03:11:33;;;;;;;39.10;20.42;;;;;;;-1.56;84.78;98626.38;5065065;28;20025;-54
2020/12/26 03:13:58;;;;;;;38.78;19.90;;;;;;;-1.59;83.81;98613.66;5082627;28;20331;-54
2020/12/26 03:16:24;;;;;;;42.08;22.20;;;;;;;-1.54;83.66;98625.53;5082490;28;20086;-54
2020/12/26 03:18:49;;;;;;;38.17;18.50;;;;;;;-1.58;83.57;98622.13;5082641;28;20103;-54
2020/12/26 03:21:15;;;;;;;38.50;19.63;;;;;;;-1.57;84.75;98614.53;5082548;28;20020;-54
2020/12/26 03:23:41;;;;;;;37.45;20.95;;;;;;;-1.41;84.14;98632.44;5077869;28;20033;-54
2020/12/26 03:26:07;;;;;;;43.08;20.88;;;;;;;-1.40;84.42;98614.69;5062510;28;20377;-54
2020/12/26 03:28:34;;;;;;;37.65;19.45;;;;;;;-1.39;83.55;98618.91;5076314;28;20036;-54
2020/12/26 03:30:59;;;;;;;41.25;20.42;;;;;;;-1.55;83.96;98622.16;5082450;28;20313;-54
2020/12/26 03:33:25;;;;;;;36.42;19.63;;;;;;;-1.48;84.02;98613.75;5082069;28;20027;-54
2020/12/26 03:35:50;;;;;;;41.35;19.95;;;;;;;-1.30;83.24;98613.06;5082552;28;20135;-54
2020/12/26 03:38:16;;;;;;;38.97;19.83;;;;;;;-1.15;83.43;98624.22;5082493;28;20028;-53
2020/12/26 03:40:41;;;;;;;34.70;18.73;;;;;;;-1.18;83.09;98619.94;5098006;28;20033;-53
2020/12/26 03:43:07;;;;;;;36.42;19.08;;;;;;;-1.59;84.11;98560.34;5067195;28;20021;-53
2020/12/26 03:45:32;;;;;;;36.20;20.10;;;;;;;-1.30;83.42;98615.59;5062341;28;20053;-53
2020/12/26 03:47:58;;;;;;;37.70;19.70;;;;;;;-1.25;84.60;98615.66;5062171;28;20063;-53
2020/12/26 03:50:23;;;;;;;36.97;19.25;;;;;;;-1.24;83.82;98619.88;5062025;28;20029;-53
2020/12/26 03:52:49;;;;;;;38.30;18.23;;;;;;;-1.12;84.30;98614.91;5074348;28;20143;-54
2020/12/26 03:55:15;;;;;;;32.45;18.83;;;;;;;-1.33;84.09;98620.66;5082139;28;20028;-53
2020/12/26 03:57:40;;;;;;;36.35;20.00;;;;;;;-1.45;84.25;98625.66;5082142;28;20039;-53
2020/12/26 04:00:07;;;;;;;32.10;18.17;;;;;;;-1.42;84.88;98615.50;5081995;28;20309;-53
2020/12/26 04:02:33;;;;;;;38.63;19.85;;;;;;;-1.30;84.63;98619.84;5072323;28;20092;-53
2020/12/26 04:04:58;;;;;;;39.35;21.13;;;;;;;-1.17;84.51;98615.72;5061916;28;20029;-54
2020/12/26 04:07:24;;;;;;;37.90;19.90;;;;;;;-1.18;84.18;98619.09;5061917;28;20037;-53
2020/12/26 04:09:49;;;;;;;53.25;26.00;;;;;;;-1.37;84.75;98613.84;5062077;28;20033;-53
2020/12/26 04:12:15;;;;;;;37.28;20.38;;;;;;;-1.48;84.21;98578.22;5068851;28;20328;-54
2020/12/26 04:14:40;;;;;;;37.55;19.98;;;;;;;-1.23;85.19;98621.59;5081863;28;20024;-54
2020/12/26 04:17:06;;;;;;;38.13;20.88;;;;;;;-1.15;85.56;98629.28;5082559;28;20029;-54
2020/12/26 04:19:32;;;;;;;41.40;20.52;;;;;;;-1.28;85.51;98629.19;5085505;28;20081;-53
2020/12/26 04:21:57;;;;;;;40.45;21.02;;;;;;;-1.25;85.67;98623.28;5081062;28;20213;-54
2020/12/26 04:24:23;;;;;;;39.90;21.48;;;;;;;-1.19;85.63;98630.09;5065328;28;20025;-54
2020/12/26 04:26:50;;;;;;;39.53;20.67;;;;;;;-1.14;84.97;98636.06;5065286;28;20096;-53
2020/12/26 04:29:15;;;;;;;40.78;21.10;;;;;;;-1.03;85.60;98631.91;5084931;28;20039;-54
2020/12/26 04:31:41;;;;;;;40.25;21.45;;;;;;;-1.08;84.46;98620.88;5085277;28;20020;-53
2020/12/26 04:34:07;;;;;;;49.25;22.70;;;;;;;-1.05;85.36;98636.16;5085178;28;20035;-53
2020/12/26 04:36:32;;;;;;;40.20;21.33;;;;;;;-0.91;84.36;98634.56;5085320;28;20313;-54
2020/12/26 04:38:58;;;;;;;42.00;22.17;;;;;;;-0.92;83.95;98619.31;5085174;28;20198;-53
2020/12/26 04:41:24;;;;;;;42.30;22.15;;;;;;;-0.89;84.69;98626.94;5085089;28;20221;-54
2020/12/26 04:43:53;;;;;;;47.47;21.95;;;;;;;-0.83;83.94;98626.13;5065536;28;20043;-53
2020/12/26 04:46:20;;;;;;;44.65;23.52;;;;;;;-0.77;84.56;98629.59;5065046;28;20040;-54
2020/12/26 04:49:09;;;;;;;45.05;21.52;;;;;;;-0.74;84.22;98621.97;5064753;28;20039;-55
2020/12/26 04:51:36;;;;;;;40.53;21.50;;;;;;;-0.82;84.61;98636.31;5062374;28;20098;-55
2020/12/26 04:54:32;;;;;;;41.63;21.42;;;;;;;-0.74;84.60;98631.28;5084798;28;20028;-54
2020/12/26 04:56:57;;;;;;;41.15;20.80;;;;;;;-0.74;84.30;98629.59;5084324;28;20044;-55
2020/12/26 04:59:24;;;;;;;41.92;22.10;;;;;;;-0.71;84.45;98636.41;5084701;28;20047;-55
2020/12/26 05:01:51;;;;;;;43.22;22.33;;;;;;;-0.87;85.22;98632.88;5082383;28;20029;-54
2020/12/26 05:04:17;;;;;;;47.10;22.30;;;;;;;-0.76;84.50;98623.63;5064611;28;20227;-54
2020/12/26 05:06:48;;;;;;;41.60;21.73;;;;;;;-0.77;84.43;98610.91;5064392;28;20029;-54
2020/12/26 05:09:15;;;;;;;37.07;19.23;;;;;;;-0.48;83.78;98635.69;5064517;28;20035;-53
2020/12/26 05:11:51;;;;;;;45.00;22.20;;;;;;;-0.54;84.48;98637.34;5065276;28;20265;-54
2020/12/26 05:14:17;;;;;;;40.22;20.90;;;;;;;-0.51;83.96;98636.53;5084563;28;20270;-55
2020/12/26 05:16:42;;;;;;;35.67;19.88;;;;;;;-0.45;84.23;98634.00;5084362;28;20370;-53
2020/12/26 05:19:08;;;;;;;38.55;20.63;;;;;;;-0.47;83.74;98645.00;5084378;28;20188;-54
2020/12/26 05:21:34;;;;;;;42.65;22.08;;;;;;;-0.47;83.73;98640.78;5084348;28;20051;-55
2020/12/26 05:24:08;;;;;;;40.10;22.02;;;;;;;-0.42;83.78;98648.44;5064210;28;20082;-54
2020/12/26 05:26:39;;;;;;;43.08;22.77;;;;;;;-0.39;83.87;98659.47;5072337;28;20048;-54
2020/12/26 05:29:05;;;;;;;44.47;20.70;;;;;;;-0.42;83.41;98656.06;5083611;28;20020;-54
2020/12/26 05:31:57;;;;;;;38.28;22.17;;;;;;;-0.35;84.03;98681.53;5083794;28;20264;-54
2020/12/26 05:34:34;;;;;;;39.28;21.05;;;;;;;-0.83;83.92;98604.09;5063979;28;20071;-54
2020/12/26 05:37:04;;;;;;;36.35;19.85;;;;;;;-0.37;83.86;98667.09;5063629;28;20044;-54
2020/12/26 05:39:35;;;;;;;37.92;19.58;;;;;;;-0.71;83.33;98613.53;5063869;28;20029;-54
2020/12/26 05:42:01;;;;;;;38.35;21.35;;;;;;;-0.50;84.93;98671.25;5062684;28;20096;-54
2020/12/26 05:44:30;;;;;;;36.95;20.05;;;;;;;-0.78;85.36;98609.25;5063603;28;20049;-54
2020/12/26 05:46:58;;;;;;;39.72;20.50;;;;;;;-0.36;84.65;98678.97;5063666;28;20056;-53
2020/12/26 05:49:29;;;;;;;39.40;21.80;;;;;;;-0.72;84.31;98607.56;5079213;28;20302;-55
2020/12/26 05:52:04;;;;;;;39.13;20.33;;;;;;;-0.31;84.09;98701.91;5072296;28;20040;-53
2020/12/26 05:54:31;;;;;;;35.42;20.95;;;;;;;-0.37;83.99;98667.09;5083380;28;20039;-55
2020/12/26 05:57:13;;;;;;;32.28;18.15;;;;;;;-0.11;83.69;98684.22;5083632;28;20403;-55
2020/12/26 05:59:39;;;;;;;;;;;;;;;-0.09;84.23;98683.38;5084266;28;20024;-55
2020/12/26 06:02:30;;;;;;;39.83;20.67;;;;;;;-0.08;83.78;98679.16;5083438;28;19916;-55
2020/12/26 06:05:04;;;;;;;31.58;18.77;;;;;;;-0.48;83.47;98621.28;5083349;28;20028;-55
2020/12/26 06:07:32;;;;;;;35.03;19.55;;;;;;;-0.30;84.88;98693.44;5083288;28;20044;-54
2020/12/26 06:10:01;;;;;;;34.65;20.38;;;;;;;-0.55;84.57;98635.63;5082201;28;20095;-54
2020/12/26 06:12:29;;;;;;;38.70;19.95;;;;;;;-0.16;84.54;98708.78;5077464;28;20041;-54
2020/12/26 06:14:55;;;;;;;31.10;18.17;;;;;;;-0.09;84.39;98706.28;5078748;28;20023;-55
2020/12/26 06:17:31;;;;;;;34.92;20.10;;;;;;;-0.05;84.48;98700.38;5063082;28;20067;-54
2020/12/26 06:20:00;;;;;;;36.47;19.27;;;;;;;-0.06;84.41;98696.13;5062946;28;20282;-54
2020/12/26 06:22:47;;;;;;;36.10;17.58;;;;;;;0.13;84.08;98730.16;5068361;28;20027;-54
2020/12/26 06:25:23;;;;;;;35.58;18.00;;;;;;;0.14;84.10;98734.41;5083015;28;20233;-53
2020/12/26 06:27:52;;;;;;;37.13;18.20;;;;;;;0.09;84.19;98725.91;5083255;28;20027;-52
2020/12/26 06:30:21;;;;;;;32.95;19.40;;;;;;;0.17;83.76;98733.56;5082855;28;20222;-53
2020/12/26 06:32:48;;;;;;;36.35;19.08;;;;;;;-0.22;84.76;98682.47;5082395;28;20210;-53
2020/12/26 06:35:14;;;;;;;29.88;17.10;;;;;;;0.11;84.25;98734.38;5082786;28;20420;-53
2020/12/26 06:37:40;;;;;;;38.45;17.67;;;;;;;0.09;85.01;98738.63;5082755;28;20032;-54
2020/12/26 06:40:29;;;;;;;33.28;16.65;;;;;;;0.11;85.23;98743.72;5081915;28;20025;-53
2020/12/26 06:42:56;;;;;;;14.38;7.50;;;;;;;0.07;84.08;98749.63;5083822;28;20112;-54
2020/12/26 06:45:36;;;;;;;11.98;6.07;;;;;;;0.22;82.74;98752.25;5062574;28;20104;-54
2020/12/26 06:48:02;;;;;;;8.30;5.88;;;;;;;0.15;82.68;98756.47;5062480;28;20111;-56
2020/12/26 06:50:31;;;;;;;10.27;6.63;;;;;;;-0.09;82.08;98695.25;5062369;28;20077;-55
2020/12/26 06:52:57;;;;;;;11.68;6.53;;;;;;;0.33;82.15;98752.31;5077522;28;20336;-55
2020/12/26 06:55:50;;;;;;;5.72;4.50;;;;;;;0.36;81.14;98761.66;5081676;28;20024;-55
2020/12/26 06:58:25;;;;;;;6.03;4.47;;;;;;;0.31;80.81;98772.69;5078779;28;20040;-55
2020/12/26 07:00:51;;;;;;;10.23;4.88;;;;;;;0.36;81.43;98759.09;5081585;28;20074;-55
2020/12/26 07:03:24;;;;;;;5.97;4.20;;;;;;;0.42;80.66;98761.69;5082075;28;20044;-55
2020/12/26 07:05:52;;;;;;;7.80;4.70;;;;;;;0.42;81.05;98765.09;5081958;28;20225;-55
2020/12/26 07:08:20;;;;;;;7.00;4.10;;;;;;;0.48;80.15;98766.81;5082276;28;20032;-55
2020/12/26 07:10:46;;;;;;;6.43;4.78;;;;;;;0.46;80.32;98766.81;5081812;28;20218;-55
2020/12/26 07:13:31;;;;;;;6.05;4.35;;;;;;;0.54;79.36;98771.06;5081671;28;20025;-55
2020/12/26 07:15:57;;;;;;;6.28;3.95;;;;;;;0.57;78.76;98760.91;5081829;28;20310;-55
2020/12/26 07:18:23;;;;;;;8.68;3.60;;;;;;;0.49;78.97;98763.41;5081745;28;20298;-54
2020/12/26 07:20:50;;;;;;;5.57;3.78;;;;;;;0.56;78.98;98764.31;5081524;28;20032;-54
2020/12/26 07:23:16;;;;;;;6.28;3.35;;;;;;;0.55;78.42;98767.69;5081725;28;20072;-54
2020/12/26 07:25:42;;;;;;;5.13;3.58;;;;;;;0.57;78.25;98768.53;5081681;28;20033;-55
2020/12/26 07:28:08;;;;;;;8.30;3.95;;;;;;;0.55;78.41;98773.63;5081810;28;20059;-55
2020/12/26 07:30:36;;;;;;;5.90;3.70;;;;;;;0.51;78.25;98762.59;5081854;28;20248;-55
2020/12/26 07:33:01;;;;;;;5.93;3.50;;;;;;;0.58;78.14;98777.88;5081692;28;20031;-55
2020/12/26 07:35:28;;;;;;;7.45;4.70;;;;;;;0.49;77.89;98777.00;5081942;28;20046;-55
2020/12/26 07:37:58;;;;;;;6.78;3.42;;;;;;;0.66;77.32;98763.50;5081995;28;20040;-53
2020/12/26 07:40:23;;;;;;;6.63;4.00;;;;;;;0.69;77.15;98768.59;5081956;28;20030;-54
2020/12/26 07:42:50;;;;;;;8.13;3.70;;;;;;;0.72;76.53;98772.84;5081846;28;20301;-53
2020/12/26 07:45:21;;;;;;;6.32;3.30;;;;;;;0.14;76.41;98688.59;5081918;28;20222;-54
2020/12/26 07:47:51;;;;;;;7.35;4.28;;;;;;;0.82;76.18;98780.50;5081230;28;20036;-54
2020/12/26 07:50:20;;;;;;;6.03;3.63;;;;;;;0.51;75.94;98721.84;5078759;28;20024;-56
2020/12/26 07:52:46;;;;;;;6.60;3.88;;;;;;;0.85;75.36;98785.63;5081223;28;20183;-54
2020/12/26 07:55:12;;;;;;;6.20;3.35;;;;;;;0.80;74.56;98794.13;5081569;28;20092;-54
2020/12/26 07:57:38;;;;;;;5.90;3.15;;;;;;;0.66;73.24;98787.25;5065692;28;20021;-54
2020/12/26 08:00:04;;;;;;;6.28;3.45;;;;;;;0.66;73.17;98788.97;5066872;28;20029;-55
2020/12/26 08:02:31;;;;;;;5.35;2.85;;;;;;;0.69;72.54;98796.63;5085453;28;20037;-55
2020/12/26 08:04:56;;;;;;;6.47;3.05;;;;;;;0.68;73.28;98784.72;5085746;28;20028;-54
2020/12/26 08:07:24;;;;;;;3.75;2.88;;;;;;;0.79;72.71;98793.25;5084594;28;20040;-54
2020/12/26 08:09:50;;;;;;;4.97;3.10;;;;;;;0.83;72.92;98778.84;5084882;28;20104;-55
2020/12/26 08:12:16;;;;;;;2.80;2.40;;;;;;;0.71;70.81;98771.97;5078528;28;20056;-53
2020/12/26 08:14:42;;;;;;;3.85;2.28;;;;;;;0.83;71.26;98779.69;5085434;28;20032;-54
2020/12/26 08:17:09;;;;;;;3.22;2.70;;;;;;;0.71;71.29;98782.19;5085551;28;20036;-55
2020/12/26 08:19:35;;;;;;;3.20;2.40;;;;;;;0.83;70.22;98784.78;5084967;28;20035;-56
2020/12/26 08:22:02;;;;;;;3.28;2.80;;;;;;;0.78;71.08;98790.69;5085255;28;20029;-55
2020/12/26 08:24:29;;;;;;;6.22;3.38;;;;;;;0.83;70.31;98778.84;5065384;28;20025;-55
2020/12/26 08:26:56;;;;;;;6.85;3.28;;;;;;;0.95;70.72;98770.38;5075813;28;20032;-55
2020/12/26 08:29:39;;;;;;;4.47;2.97;;;;;;;0.65;70.65;98719.31;5084815;28;20360;-57
2020/12/26 08:32:11;;;;;;;5.43;2.80;;;;;;;1.08;71.46;98766.97;5083969;28;20035;-56
2020/12/26 08:34:58;;;;;;;4.18;2.92;;;;;;;1.08;71.26;98769.53;5083164;28;20025;-56
2020/12/26 08:37:29;;;;;;;2.88;2.25;;;;;;;1.13;71.71;98775.50;5084931;28;20043;-57
2020/12/26 08:39:58;;;;;;;6.80;2.90;;;;;;;0.75;71.03;98722.72;5084535;28;20057;-56
2020/12/26 08:42:27;;;;;;;5.43;2.28;;;;;;;1.05;71.22;98805.22;5084699;28;20036;-56
2020/12/26 08:44:53;;;;;;;3.22;2.47;;;;;;;1.11;71.12;98784.00;5084908;28;20044;-57
2020/12/26 08:47:32;;;;;;;4.63;3.10;;;;;;;1.11;70.70;98784.84;5084525;28;20036;-57
2020/12/26 08:49:58;;;;;;;4.28;2.92;;;;;;;1.20;70.66;98784.03;5084651;28;20028;-57
2020/12/26 08:52:27;;;;;;;6.05;3.60;;;;;;;1.08;71.94;98773.78;5075377;28;20097;-57
2020/12/26 08:55:09;;;;;;;5.13;2.90;;;;;;;0.91;71.88;98723.63;5078241;28;20048;-57
2020/12/26 08:57:35;;;;;;;7.05;3.15;;;;;;;1.18;71.98;98773.81;5083230;28;20043;-57
2020/12/26 09:00:21;;;;;;;5.85;2.90;;;;;;;0.85;71.99;98729.53;5083519;28;20174;-54
2020/12/26 09:02:52;;;;;;;11.27;3.22;;;;;;;0.92;71.50;98734.69;5082032;28;20086;-54
2020/12/26 09:05:25;;;;;;;7.28;3.42;;;;;;;1.35;73.00;98795.94;5081647;28;20095;-55
2020/12/26 09:08:06;;;;;;;3.85;3.28;;;;;;;1.38;71.67;98789.16;5083824;28;20081;-56
2020/12/26 09:10:34;;;;;;;6.78;3.42;;;;;;;1.08;71.49;98749.13;5082326;28;20247;-56
2020/12/26 09:13:13;;;;;;;8.88;3.88;;;;;;;1.40;72.11;98812.09;5079133;28;20071;-56
2020/12/26 09:15:59;;;;;;;4.35;3.13;;;;;;;1.40;72.52;98798.47;5082910;28;20033;-54
2020/12/26 09:18:26;;;;;;;10.60;4.05;;;;;;;0.96;72.83;98733.84;5083861;28;20123;-57
2020/12/26 09:20:57;;;;;;;8.93;3.60;;;;;;;0.97;72.50;98750.81;5084019;28;20056;-56
2020/12/26 09:23:25;;;;;;;16.57;9.03;;;;;;;1.24;73.54;98813.78;5082772;28;20312;-56
2020/12/26 09:25:51;;;;;;;5.05;3.80;;;;;;;1.25;73.22;98807.81;5083714;28;20024;-54
2020/12/26 09:28:17;;;;;;;6.00;4.13;;;;;;;1.31;72.90;98801.88;5083804;28;20036;-55
2020/12/26 09:30:44;;;;;;;5.88;3.45;;;;;;;1.18;73.74;98801.88;5084144;28;20091;-55
2020/12/26 09:33:09;;;;;;;9.07;4.50;;;;;;;1.29;73.66;98803.59;5083730;28;20105;-56
2020/12/26 09:35:35;;;;;;;6.07;4.00;;;;;;;1.37;73.06;98809.56;5083917;28;20240;-55
2020/12/26 09:38:01;;;;;;;9.38;3.85;;;;;;;1.23;73.25;98806.09;5083621;28;20027;-55
2020/12/26 09:40:35;;;;;;;7.65;4.50;;;;;;;1.42;74.16;98830.78;5082249;28;20024;-55
2020/12/26 09:43:01;;;;;;;7.57;3.92;;;;;;;1.40;73.63;98817.19;5078320;28;20032;-55
2020/12/26 09:45:28;;;;;;;9.10;4.38;;;;;;;1.33;74.40;98820.59;5063431;28;20049;-54
2020/12/26 09:47:57;;;;;;;7.85;4.22;;;;;;;1.36;74.26;98821.44;5062497;28;20033;-55
2020/12/26 09:50:25;;;;;;;5.53;3.70;;;;;;;1.35;74.26;98816.34;5063528;28;20074;-54
2020/12/26 09:52:51;;;;;;;6.35;3.63;;;;;;;1.34;74.88;98812.94;5067122;28;20024;-54
2020/12/26 09:55:17;;;;;;;8.00;4.30;;;;;;;1.42;74.80;98800.19;5083417;28;20028;-54
2020/12/26 09:57:42;;;;;;;11.68;4.65;;;;;;;1.45;74.95;98812.94;5083433;28;20255;-54
2020/12/26 10:00:09;;;;;;;7.93;4.30;;;;;;;1.46;74.45;98807.00;5083174;28;20345;-54
2020/12/26 10:02:35;;;;;;;6.45;4.20;;;;;;;1.42;74.09;98820.59;5081965;28;20078;-54
2020/12/26 10:05:04;;;;;;;13.32;4.20;;;;;;;1.45;74.41;98807.84;5063158;28;20021;-55
2020/12/26 10:07:34;;;;;;;8.27;4.05;;;;;;;1.27;74.99;98812.91;5063022;28;20037;-53
2020/12/26 10:10:00;;;;;;;6.45;4.18;;;;;;;1.33;75.73;98806.13;5062727;28;20165;-54
2020/12/26 10:12:26;;;;;;;12.55;4.70;;;;;;;1.49;75.47;98811.25;5063216;28;20043;-54
2020/12/26 10:14:52;;;;;;;11.65;4.60;;;;;;;1.50;75.19;98803.59;5064318;28;20025;-54
2020/12/26 10:17:18;;;;;;;7.35;4.30;;;;;;;1.47;75.34;98811.25;5082718;28;20038;-53
2020/12/26 10:19:43;;;;;;;7.70;4.25;;;;;;;1.43;75.16;98808.72;5082420;28;20025;-53
2020/12/26 10:22:09;;;;;;;8.93;4.78;;;;;;;1.38;75.89;98808.69;5082941;28;20076;-55
2020/12/26 10:24:34;;;;;;;7.10;4.03;;;;;;;1.34;75.82;98812.06;5081455;28;20252;-53
2020/12/26 10:27:00;;;;;;;9.18;4.35;;;;;;;1.33;75.59;98806.13;5082790;28;20477;-54
2020/12/26 10:29:26;;;;;;;6.63;3.80;;;;;;;1.38;75.48;98804.44;5080847;28;20067;-53
2020/12/26 10:31:51;;;;;;;5.40;3.38;;;;;;;1.28;75.02;98812.91;5080929;28;20236;-54
2020/12/26 10:34:17;;;;;;;9.77;3.80;;;;;;;1.30;74.72;98810.41;5080568;28;20028;-54
2020/12/26 10:36:44;;;;;;;5.00;3.95;;;;;;;1.35;75.77;98808.69;5080611;28;20076;-55
2020/12/26 10:39:09;;;;;;;6.65;3.38;;;;;;;1.12;74.98;98799.28;5080541;28;20210;-55
2020/12/26 10:41:35;;;;;;;6.50;4.00;;;;;;;1.24;75.79;98806.13;5080993;28;20134;-54
2020/12/26 10:44:01;;;;;;;6.22;4.80;;;;;;;1.40;75.87;98807.00;5081964;28;20051;-55
2020/12/26 10:46:26;;;;;;;8.23;4.35;;;;;;;1.37;75.18;98809.56;5082656;28;20108;-54
2020/12/26 10:48:52;;;;;;;6.85;4.20;;;;;;;1.47;76.13;98818.03;5082205;28;20025;-54
2020/12/26 10:51:18;;;;;;;7.35;4.30;;;;;;;1.36;75.24;98803.56;5082766;28;20025;-55
2020/12/26 10:53:43;;;;;;;10.27;4.93;;;;;;;1.36;75.50;98815.50;5082495;28;20318;-53
2020/12/26 10:56:09;;;;;;;10.95;4.90;;;;;;;1.38;76.05;98818.88;5082731;28;20036;-52
2020/12/26 10:58:34;;;;;;;8.60;4.82;;;;;;;1.37;75.30;98819.75;5082385;28;20021;-54
2020/12/26 11:01:00;;;;;;;18.33;11.25;;;;;;;1.47;75.76;98830.78;5082436;28;20029;-54
2020/12/26 11:03:28;;;;;;;8.73;5.13;;;;;;;1.44;75.08;98830.78;5075380;28;20051;-54
2020/12/26 11:05:54;;;;;;;8.30;4.38;;;;;;;1.31;76.33;98823.16;5062422;28;20214;-53
2020/12/26 11:08:19;;;;;;;6.40;4.05;;;;;;;1.34;75.81;98824.81;5062464;28;20024;-53
2020/12/26 11:10:45;;;;;;;6.88;4.50;;;;;;;1.30;75.41;98823.16;5062400;28;20231;-54
2020/12/26 11:13:11;;;;;;;6.65;3.80;;;;;;;1.30;75.09;98810.41;5066986;28;20058;-54
2020/12/26 11:15:36;;;;;;;7.75;4.63;;;;;;;1.27;75.83;98818.00;5082557;28;20059;-54
2020/12/26 11:18:03;;;;;;;5.05;3.60;;;;;;;1.27;74.93;98815.47;5098161;28;20044;-54
2020/12/26 11:20:29;;;;;;;8.40;4.38;;;;;;;1.27;75.11;98810.38;5082060;28;20024;-54
2020/12/26 11:22:55;;;;;;;6.38;4.05;;;;;;;1.45;75.47;98824.84;5080090;28;20036;-54
2020/12/26 11:25:20;;;;;;;6.15;3.80;;;;;;;1.33;74.88;98806.13;5062197;28;20024;-54
2020/12/26 11:27:46;;;;;;;6.25;3.92;;;;;;;1.45;74.77;98819.75;5073448;28;20024;-54
2020/12/26 11:30:11;;;;;;;5.28;3.67;;;;;;;1.45;75.36;98812.09;5086143;28;20028;-54